Aérodrome :
LOGIN :

S'inscrire | Disclaimer

   EN    FR    IT 

 










Légende :    VFR   VFR Marginal   IFR   IFR Intensif   IFR Très Intensif
Visi : 
Plafond : 
>= 8 km
>= 3000ft
5 à 8 km
1000 à 3000 ft
1500m à 5 km
500 à 1000 ft
800 à 1500m
200 à 500 ft
< 800m
< 200 ft
Symboles :   Orages  Brouillard  Fortes neiges  Fortes précipitations  Vent > 20 kt
SIGMETs :   Divers  Orages  Givrage  Turbulence  Onde Orograph.  Cendres Volcan.







- Altitude de l'aérodrome : 1649 ft
- Code IATA : HHN


EDFH - Frankfurt-Hahn Rhineland-Palatinate

DERNIER METAR :
  • 101850Z 31012KT 9999 SCT013 01/01 Q1021

METARs EXPIRÉS :
  • 101820Z 31011KT 9999 -DZ SCT007 BKN014 02/01 Q1021
  • 101750Z 32009KT 280V350 9999 -DZ BKN011 02/01 Q1021
  • 101720Z 32008KT 9999 BKN015 02/01 Q1021
  • 101650Z 33007KT 9999 BKN016 02/01 Q1021
  • 101620Z 29013KT 9000 -SHRA BKN020 03/M00 Q1020

TAF TAF EDFH
Valide du 10 à 18h jusqu'au 11 à 18h UTC


101700Z 1018/1118 29012KT 9999 SCT020
PROB30
TEMPO 1018/1020 28015G25KT 4000 SHRA BKN008 BKN015TCU
TEMPO 1020/1110 BKN012
PROB30
TEMPO 1022/1109 BKN008
BECMG 1113/1115 28007KT
Pas de NOTAMs connus pour ce terrain.
1 SIGMET publié pour la FIR Langen (EDGG) :
 
Turbulence forte
EDGG SIGMET 2 VALID 101704/102000 EDZF
EDGG LANGEN FIR SEV TURB FCST APRX 40NM WID LINE BTN N5103 E00555 - N4755 E00906 FL180/240 MOV E NC=



MET'MAP, la Météo Aéronautique d'un coup d'oeil ! - Copyright ORBIFLY Décembre 2007 - Disclaimer

ORBIFLY MET'MAP TEAM :

Programmation & Développement : Alexandra Zaïnal
Conception & Développement : Baudouin d'Aumeries
Co-Programmation & Développement : Marc-Olivier Méhu
Soutien technique & logistique : Manuel Goepfert

Contact : metmap@orbifly.com




SOURCES & CREDITS :

   NOAA